Sarissa — ZGBS5 — position and weather

sailwx.info

Track history (hours):
 
Tides and Currents Weather Stations Pressure Air Temp Water Temp Dewpoint Dewpoint Depression Visibility Wind Speed Wind Dir Waves Ship Positions

Sarissa

Last reported at 2018-May-14 12:38 UTC. Time now 2018-Jul-16 22:13 UTC.
Position N 35°53' E 014°31'.
Warning: this ship's position is months out of date.

Length 44 m.

Type: Ship. MMSI: 319036300.

Date/timePositionNaut miles runAvg speedWind from/ knotsBaromVisibWave heightAir tempDewpointWater temp
2018-May-14 12:38N 35°53' E 014°31'  
2018-May-05 04:26N 35°58' E 014°32'511.0
2018-May-05 03:56N 36°01' E 014°27'510.8
2018-May-05 03:30N 36°05' E 014°23'510.6
2018-May-05 03:00N 36°08' E 014°18'510.5
2018-May-05 02:30N 36°11' E 014°12'510.3
2018-May-05 02:00N 36°13' E 014°07'510.2
2018-May-05 01:30N 36°15' E 014°01'510.2
2018-May-05 01:00N 36°18' E 013°55'510.2
2018-May-05 00:30N 36°20' E 013°50'510.4
2018-May-04 23:59N 36°22' E 013°44'510.6
2018-May-04 23:29N 36°25' E 013°38'  
Track history (hours):
 
Tides and Currents Weather Stations Pressure Air Temp Water Temp Dewpoint Dewpoint Depression Visibility Wind Speed Wind Dir Waves Ship Positions

Sarissa

Last reported at 2018-May-14 12:38 UTC. Time now 2018-Jul-16 22:13 UTC.
Position N 35°53' E 014°31'.
Warning: this ship's position is months out of date.

Length 44 m.

Type: Ship. MMSI: 319036300.

Date/timePositionNaut miles runAvg speedWind from/ knotsBaromVisibWave heightAir tempDewpointWater temp
2018-May-14 12:38N 35°53' E 014°31'  
2018-May-05 04:26N 35°58' E 014°32'511.0
2018-May-05 03:56N 36°01' E 014°27'510.8
2018-May-05 03:30N 36°05' E 014°23'510.6
2018-May-05 03:00N 36°08' E 014°18'510.5
2018-May-05 02:30N 36°11' E 014°12'510.3
2018-May-05 02:00N 36°13' E 014°07'510.2
2018-May-05 01:30N 36°15' E 014°01'510.2
2018-May-05 01:00N 36°18' E 013°55'510.2
2018-May-05 00:30N 36°20' E 013°50'510.4
2018-May-04 23:59N 36°22' E 013°44'510.6
2018-May-04 23:29N 36°25' E 013°38'  

Dump ship's entire track history